createdAt,value
2023-05-11T00:01:33.766Z,98270.38
2023-05-11T00:04:00.918Z,98262.78
2023-05-11T00:06:27.771Z,98257.16
2023-05-11T00:08:54.594Z,98262.94
2023-05-11T00:11:21.315Z,98255.84
2023-05-11T00:13:48.010Z,98262.13
2023-05-11T00:16:15.013Z,98254.88
2023-05-11T00:18:41.870Z,98254.63
2023-05-11T00:21:08.689Z,98244.56
2023-05-11T00:23:35.404Z,98252.72
2023-05-11T00:26:02.066Z,98251.34
2023-05-11T00:28:28.720Z,98252.47
2023-05-11T00:30:58.897Z,98250.53
2023-05-11T00:33:26.076Z,98252.81
2023-05-11T00:35:52.886Z,98253.59
2023-05-11T00:38:19.673Z,98253.28
2023-05-11T00:40:46.353Z,98246.31
2023-05-11T00:43:13.512Z,98252.03
2023-05-11T00:45:40.515Z,98245.44
2023-05-11T00:48:07.573Z,98247.13
2023-05-11T00:50:36.107Z,98244.75
2023-05-11T00:53:03.355Z,98245.97
2023-05-11T00:55:30.573Z,98249.75
2023-05-11T00:57:57.623Z,98249.34
2023-05-11T01:00:24.573Z,98248.22
2023-05-11T01:02:52.110Z,98247.41
2023-05-11T01:05:19.321Z,98256.38
2023-05-11T01:08:01.792Z,98253.81
2023-05-11T01:10:33.431Z,98248.41
2023-05-11T01:13:42.730Z,98255.50
2023-05-11T01:16:17.474Z,98257.47
2023-05-11T01:19:12.606Z,98251.31
2023-05-11T01:21:40.015Z,98257.06
2023-05-11T01:24:09.792Z,98251.19
2023-05-11T01:26:39.779Z,98251.94
2023-05-11T01:29:25.433Z,98261.56
2023-05-11T01:31:55.805Z,98257.34
2023-05-11T01:34:25.535Z,98259.81
2023-05-11T01:37:05.086Z,98264.72
2023-05-11T01:39:38.378Z,98259.66
2023-05-11T01:42:09.940Z,98253.31
2023-05-11T01:44:42.297Z,98257.88
2023-05-11T01:47:11.928Z,98262.81
2023-05-11T01:49:42.346Z,98264.69
2023-05-11T01:52:09.805Z,98266.81
2023-05-11T01:54:38.963Z,98262.34
2023-05-11T01:57:06.970Z,98263.34
2023-05-11T01:59:35.807Z,98260.31
2023-05-11T02:02:04.022Z,98262.75
2023-05-11T02:04:31.749Z,98258.34
2023-05-11T02:07:01.071Z,98263.66
2023-05-11T02:09:31.341Z,98261.16
2023-05-11T02:12:00.545Z,98259.34
2023-05-11T02:14:29.350Z,98262.75
2023-05-11T02:16:57.303Z,98262.91
2023-05-11T02:19:25.785Z,98260.91
2023-05-11T02:21:54.332Z,98257.13
2023-05-11T02:24:22.289Z,98258.91
2023-05-11T02:26:48.961Z,98261.41
2023-05-11T02:29:16.193Z,98261.41
2023-05-11T02:31:47.194Z,98267.59
2023-05-11T02:34:37.206Z,98263.09
2023-05-11T02:37:07.215Z,98260.44
2023-05-11T02:39:38.128Z,98252.97
2023-05-11T02:42:25.667Z,98253.63
2023-05-11T02:45:03.238Z,98249.16
2023-05-11T02:47:36.702Z,98252.50
2023-05-11T02:50:05.838Z,98254.47
2023-05-11T02:52:40.374Z,98252.72
2023-05-11T02:55:08.435Z,98253.69
2023-05-11T02:57:35.677Z,98253.53
2023-05-11T03:00:08.351Z,98255.59
2023-05-11T03:02:35.389Z,98260.41
2023-05-11T03:05:02.531Z,98255.69
2023-05-11T03:07:29.600Z,98262.03
2023-05-11T03:09:56.302Z,98256.00
2023-05-11T03:12:23.788Z,98250.91
2023-05-11T03:14:52.337Z,98251.69
2023-05-11T03:17:21.061Z,98250.59
2023-05-11T03:19:48.677Z,98257.25
2023-05-11T03:22:16.381Z,98249.16
2023-05-11T03:24:44.642Z,98254.28
2023-05-11T03:27:11.659Z,98252.44
2023-05-11T03:29:43.672Z,98252.50
2023-05-11T03:32:11.538Z,98252.09
2023-05-11T03:34:39.167Z,98258.13
2023-05-11T03:37:07.004Z,98262.69
2023-05-11T03:39:37.047Z,98259.53
2023-05-11T03:42:05.641Z,98260.59
2023-05-11T03:44:35.001Z,98259.66
2023-05-11T03:47:04.142Z,98258.03
2023-05-11T03:49:31.486Z,98246.50
2023-05-11T03:51:59.330Z,98248.88
2023-05-11T03:54:26.995Z,98249.81
2023-05-11T03:56:53.859Z,98247.28
2023-05-11T03:59:21.103Z,98255.09
2023-05-11T04:01:51.560Z,98246.16
2023-05-11T04:04:19.142Z,98239.88
2023-05-11T04:06:46.185Z,98240.84
2023-05-11T04:09:19.051Z,98246.91
2023-05-11T04:11:45.657Z,98246.50
2023-05-11T04:14:12.341Z,98244.63
2023-05-11T04:16:39.217Z,98239.88
2023-05-11T04:19:07.263Z,98240.97
2023-05-11T04:21:35.786Z,98246.75
2023-05-11T04:24:03.420Z,98253.13
2023-05-11T04:26:30.125Z,98243.38
2023-05-11T04:28:56.818Z,98239.47
2023-05-11T04:31:23.510Z,98232.97
2023-05-11T04:33:50.270Z,98239.59
2023-05-11T04:36:17.038Z,98233.03
2023-05-11T04:38:44.142Z,98237.53
2023-05-11T04:41:10.843Z,98241.06
2023-05-11T04:43:39.481Z,98241.19
2023-05-11T04:46:08.406Z,98240.19
2023-05-11T04:48:35.154Z,98237.31
2023-05-11T04:51:05.669Z,98232.75
2023-05-11T04:53:34.439Z,98247.91
2023-05-11T04:56:01.108Z,98243.88
2023-05-11T04:58:27.848Z,98243.16
2023-05-11T05:00:54.553Z,98243.81
2023-05-11T05:03:21.273Z,98252.53
2023-05-11T05:05:49.006Z,98241.19
2023-05-11T05:08:15.722Z,98240.97
2023-05-11T05:10:42.424Z,98255.81
2023-05-11T05:13:09.187Z,98251.13
2023-05-11T05:15:35.836Z,98255.56
2023-05-11T05:18:02.610Z,98258.91
2023-05-11T05:20:29.847Z,98267.63
2023-05-11T05:22:58.861Z,98265.72
2023-05-11T05:25:25.749Z,98259.59
2023-05-11T05:27:52.584Z,98265.16
2023-05-11T05:30:19.840Z,98264.88
2023-05-11T05:32:47.799Z,98264.94
2023-05-11T05:35:15.130Z,98263.81
2023-05-11T05:37:43.005Z,98266.19
2023-05-11T05:40:10.118Z,98268.56
2023-05-11T05:42:41.949Z,98280.41
2023-05-11T05:45:13.974Z,98273.84
2023-05-11T05:47:41.851Z,98267.28
2023-05-11T05:50:08.986Z,98274.38
2023-05-11T05:52:36.248Z,98279.41
2023-05-11T05:55:03.495Z,98272.91
2023-05-11T05:57:30.633Z,98271.63
2023-05-11T05:59:57.555Z,98276.44
2023-05-11T06:02:24.252Z,98271.84
2023-05-11T06:04:50.971Z,98276.34
2023-05-11T06:07:17.766Z,98276.56
2023-05-11T06:09:44.462Z,98275.97
2023-05-11T06:12:11.166Z,98276.66
2023-05-11T06:14:42.640Z,98278.97
2023-05-11T06:17:09.571Z,98280.09
2023-05-11T06:19:36.840Z,98275.00
2023-05-11T06:22:06.346Z,98277.56
2023-05-11T06:24:34.558Z,98274.44
2023-05-11T06:27:01.621Z,98273.13
2023-05-11T06:29:29.043Z,98275.66
2023-05-11T06:31:56.635Z,98273.81
2023-05-11T06:34:23.650Z,98276.19
2023-05-11T06:36:51.643Z,98288.72
2023-05-11T06:39:18.425Z,98279.31
2023-05-11T06:41:45.260Z,98284.41
2023-05-11T06:44:13.005Z,98286.50
2023-05-11T06:46:43.353Z,98288.94
2023-05-11T06:49:10.115Z,98282.81
2023-05-11T06:51:36.822Z,98285.69
2023-05-11T06:54:03.736Z,98281.22
2023-05-11T06:56:31.850Z,98280.81
2023-05-11T06:58:58.715Z,98283.63
2023-05-11T07:01:25.460Z,98278.50
2023-05-11T07:03:54.979Z,98286.47
2023-05-11T07:06:21.756Z,98286.81
2023-05-11T07:08:48.490Z,98282.31
2023-05-11T07:11:15.534Z,98285.06
2023-05-11T07:13:42.411Z,98283.81
2023-05-11T07:16:09.106Z,98279.88
2023-05-11T07:18:35.754Z,98283.75
2023-05-11T07:21:02.441Z,98273.44
2023-05-11T07:23:29.076Z,98274.03
2023-05-11T07:25:57.467Z,98270.38
2023-05-11T07:28:24.568Z,98277.53
2023-05-11T07:30:51.426Z,98273.06
2023-05-11T07:33:18.123Z,98266.88
2023-05-11T07:35:44.899Z,98271.50
2023-05-11T07:38:13.366Z,98282.81
2023-05-11T07:40:40.199Z,98282.28
2023-05-11T07:43:06.912Z,98280.56
2023-05-11T07:45:33.625Z,98276.44
2023-05-11T07:48:00.377Z,98280.56
2023-05-11T07:50:27.330Z,98274.41
2023-05-11T07:52:54.198Z,98274.25
2023-05-11T07:55:24.843Z,98267.47
2023-05-11T07:57:53.167Z,98267.47
2023-05-11T08:00:21.071Z,98256.41
2023-05-11T08:02:48.243Z,98250.69
2023-05-11T08:05:15.124Z,98242.75
2023-05-11T08:07:41.886Z,98246.53
2023-05-11T08:10:09.241Z,98250.66
2023-05-11T08:12:36.867Z,98248.53
2023-05-11T08:15:04.578Z,98247.66
2023-05-11T08:17:31.854Z,98256.94
2023-05-11T08:19:58.519Z,98261.59
2023-05-11T08:22:25.119Z,98263.03
2023-05-11T08:24:51.789Z,98257.66
2023-05-11T08:27:18.496Z,98268.31
2023-05-11T08:29:45.306Z,98275.25
2023-05-11T08:32:11.960Z,98283.84
2023-05-11T08:34:38.730Z,98271.53
2023-05-11T08:37:05.544Z,98271.59
2023-05-11T08:39:46.525Z,98263.81
2023-05-11T08:42:16.512Z,98261.03
2023-05-11T08:44:44.237Z,98261.34
2023-05-11T08:47:22.680Z,98274.75
2023-05-11T08:49:52.396Z,98269.91
2023-05-11T08:52:19.344Z,98257.06
2023-05-11T08:54:46.721Z,98263.34
2023-05-11T08:57:14.451Z,98256.47
2023-05-11T08:59:44.457Z,98265.41
2023-05-11T09:02:15.802Z,98261.50
2023-05-11T09:04:43.132Z,98268.03
2023-05-11T09:07:12.020Z,98268.59
2023-05-11T09:09:41.433Z,98266.91
2023-05-11T09:12:09.682Z,98265.34
2023-05-11T09:14:36.551Z,98268.16
2023-05-11T09:17:04.370Z,98265.66
2023-05-11T09:19:31.542Z,98261.75
2023-05-11T09:22:01.200Z,98264.34
2023-05-11T09:24:28.320Z,98265.53
2023-05-11T09:27:11.777Z,98265.63
2023-05-11T09:29:38.462Z,98258.47
2023-05-11T09:32:05.581Z,98258.66
2023-05-11T09:34:32.283Z,98251.03
2023-05-11T09:36:58.990Z,98244.75
2023-05-11T09:39:44.730Z,98254.97
2023-05-11T09:42:23.656Z,98253.78
2023-05-11T09:44:50.396Z,98249.88
2023-05-11T09:47:18.914Z,98241.06
2023-05-11T09:49:47.062Z,98237.44
2023-05-11T09:52:16.131Z,98226.44
2023-05-11T09:54:45.157Z,98219.09
2023-05-11T09:57:31.153Z,98217.91
2023-05-11T09:59:59.787Z,98225.88
2023-05-11T10:02:29.465Z,98234.75
2023-05-11T10:05:00.982Z,98244.94
2023-05-11T10:07:31.745Z,98258.56
2023-05-11T10:10:01.473Z,98267.00
2023-05-11T10:12:29.221Z,98267.06
2023-05-11T10:15:02.770Z,98266.66
2023-05-11T10:17:31.755Z,98262.81
2023-05-11T10:19:59.938Z,98265.56
2023-05-11T10:22:29.300Z,98256.78
2023-05-11T10:24:59.877Z,98265.44
2023-05-11T10:27:27.367Z,98260.16
2023-05-11T10:29:54.189Z,98259.44
2023-05-11T10:32:21.202Z,98260.34
2023-05-11T10:34:50.206Z,98261.44
2023-05-11T10:37:17.811Z,98259.63
2023-05-11T10:39:47.836Z,98253.09
2023-05-11T10:42:28.810Z,98253.22
2023-05-11T10:44:56.083Z,98243.72
2023-05-11T10:47:32.320Z,98248.88
2023-05-11T10:50:25.820Z,98248.13
2023-05-11T10:53:01.812Z,98248.13
2023-05-11T10:55:53.607Z,98243.53
2023-05-11T10:58:31.980Z,98242.06
2023-05-11T11:01:35.776Z,98244.94
2023-05-11T11:04:05.414Z,98236.06
2023-05-11T11:06:33.549Z,98237.84
2023-05-11T11:09:02.794Z,98231.00
2023-05-11T11:11:30.850Z,98234.28
2023-05-11T11:13:58.977Z,98232.09
2023-05-11T11:16:26.180Z,98229.13
2023-05-11T11:18:52.951Z,98221.38
2023-05-11T11:21:42.349Z,98215.16
2023-05-11T11:24:09.093Z,98220.13
2023-05-11T11:26:50.480Z,98217.66
2023-05-11T11:29:17.348Z,98215.41
2023-05-11T11:31:44.079Z,98201.59
2023-05-11T11:34:28.825Z,98197.69
2023-05-11T11:36:55.528Z,98194.91
2023-05-11T11:39:25.279Z,98193.06
2023-05-11T11:42:01.142Z,98188.97
2023-05-11T11:44:28.258Z,98180.38
2023-05-11T11:47:16.854Z,98181.94
2023-05-11T11:49:46.356Z,98182.03
2023-05-11T11:52:14.731Z,98171.25
2023-05-11T11:54:44.185Z,98191.94
2023-05-11T11:57:29.693Z,98180.00
2023-05-11T11:59:56.530Z,98184.25
2023-05-11T12:02:23.501Z,98179.09
2023-05-11T12:05:14.221Z,98170.91
2023-05-11T12:07:53.952Z,98173.22
2023-05-11T12:10:22.370Z,98168.78
2023-05-11T12:12:51.316Z,98172.47
2023-05-11T12:15:27.321Z,98173.84
2023-05-11T12:17:54.749Z,98164.13
2023-05-11T12:20:22.022Z,98167.94
2023-05-11T12:22:49.876Z,98173.03
2023-05-11T12:25:18.154Z,98175.25
2023-05-11T12:27:50.585Z,98163.88
2023-05-11T12:30:25.203Z,98179.22
2023-05-11T12:35:25.250Z,98168.44
2023-05-11T12:37:52.151Z,98167.16
2023-05-11T12:40:19.059Z,98158.00
2023-05-11T12:42:54.877Z,98171.41
2023-05-11T12:45:23.494Z,98171.00
2023-05-11T12:47:53.494Z,98173.31
2023-05-11T12:50:21.652Z,98173.97
2023-05-11T12:52:50.259Z,98195.63
2023-05-11T12:55:28.811Z,98208.56
2023-05-11T12:58:08.917Z,98206.88
2023-05-11T13:00:35.785Z,98211.59
2023-05-11T13:03:03.001Z,98199.47
2023-05-11T13:05:30.224Z,98193.97
2023-05-11T13:07:59.672Z,98197.97
2023-05-11T13:10:26.963Z,98203.41
2023-05-11T13:12:54.435Z,98192.25
2023-05-11T13:15:23.352Z,98190.41
2023-05-11T13:18:03.539Z,98188.19
2023-05-11T13:20:32.828Z,98183.53
2023-05-11T13:23:07.979Z,98187.66
2023-05-11T13:25:50.416Z,98183.72
2023-05-11T13:28:19.254Z,98179.97
2023-05-11T13:30:46.974Z,98170.94
2023-05-11T13:33:13.883Z,98164.16
2023-05-11T13:35:41.765Z,98170.00
2023-05-11T13:38:09.420Z,98173.84
2023-05-11T13:40:36.657Z,98164.56
2023-05-11T13:43:03.427Z,98160.03
2023-05-11T13:45:30.184Z,98158.81
2023-05-11T13:47:57.065Z,98156.59
2023-05-11T13:50:25.285Z,98155.41
2023-05-11T13:52:53.164Z,98145.47
2023-05-11T13:55:20.943Z,98139.53
2023-05-11T13:57:47.893Z,98141.25
2023-05-11T14:00:15.488Z,98135.00
2023-05-11T14:02:42.251Z,98132.47
2023-05-11T14:05:09.257Z,98127.44
2023-05-11T14:07:46.788Z,98131.75
2023-05-11T14:10:15.855Z,98133.88
2023-05-11T14:12:42.621Z,98131.09
2023-05-11T14:15:09.846Z,98119.09
2023-05-11T14:17:36.685Z,98122.41
2023-05-11T14:20:04.472Z,98126.09
2023-05-11T14:22:31.241Z,98124.97
2023-05-11T14:24:57.914Z,98129.88
2023-05-11T14:27:24.658Z,98127.78
2023-05-11T14:29:52.113Z,98125.44
2023-05-11T14:32:19.616Z,98130.78
2023-05-11T14:34:47.823Z,98129.03
2023-05-11T14:37:14.663Z,98124.25
2023-05-11T14:39:41.635Z,98118.44
2023-05-11T14:42:08.763Z,98121.88
2023-05-11T14:44:35.636Z,98114.69
2023-05-11T14:47:02.411Z,98099.66
2023-05-11T14:49:29.113Z,98104.34
2023-05-11T14:51:57.577Z,98101.47
2023-05-11T14:54:24.309Z,98097.75
2023-05-11T14:56:55.797Z,98096.78
2023-05-11T14:59:24.336Z,98105.22
2023-05-11T15:01:51.280Z,98100.81
2023-05-11T15:04:19.459Z,98089.13
2023-05-11T15:06:46.226Z,98078.22
2023-05-11T15:09:13.514Z,98083.19
2023-05-11T15:11:40.497Z,98092.69
2023-05-11T15:14:07.212Z,98085.13
2023-05-11T15:16:34.106Z,98088.75
2023-05-11T15:19:00.991Z,98090.03
2023-05-11T15:21:28.073Z,98093.94
2023-05-11T15:23:54.796Z,98092.06
2023-05-11T15:26:22.304Z,98096.06
2023-05-11T15:28:49.904Z,98095.06
2023-05-11T15:31:16.691Z,98094.16
2023-05-11T15:33:43.666Z,98088.50
2023-05-11T15:36:13.072Z,98084.75
2023-05-11T15:38:40.232Z,98090.50
2023-05-11T15:41:07.741Z,98092.03
2023-05-11T15:43:34.829Z,98090.63
2023-05-11T15:46:03.498Z,98085.06
2023-05-11T15:48:30.294Z,98077.88
2023-05-11T15:50:59.627Z,98081.66
2023-05-11T15:53:27.204Z,98074.19
2023-05-11T15:55:55.377Z,98085.91
2023-05-11T15:58:23.220Z,98083.81
2023-05-11T16:00:50.112Z,98091.75
2023-05-11T16:03:17.150Z,98082.78
2023-05-11T16:05:44.750Z,98082.81
2023-05-11T16:08:12.003Z,98073.66
2023-05-11T16:10:39.015Z,98080.47
2023-05-11T16:13:05.820Z,98069.94
2023-05-11T16:15:32.926Z,98068.50
2023-05-11T16:18:01.501Z,98068.25
2023-05-11T16:20:30.767Z,98059.19
2023-05-11T16:22:57.457Z,98062.91
2023-05-11T16:25:24.202Z,98058.06
2023-05-11T16:27:50.948Z,98065.38
2023-05-11T16:30:23.125Z,98064.72
2023-05-11T16:32:51.592Z,98056.81
2023-05-11T16:35:18.426Z,98061.50
2023-05-11T16:37:46.629Z,98054.78
2023-05-11T16:40:13.475Z,98061.56
2023-05-11T16:42:40.136Z,98065.38
2023-05-11T16:45:07.180Z,98059.91
2023-05-11T16:47:33.908Z,98057.66
2023-05-11T16:50:00.820Z,98063.03
2023-05-11T16:52:27.593Z,98064.72
2023-05-11T16:54:54.653Z,98073.72
2023-05-11T16:57:22.626Z,98076.41
2023-05-11T16:59:49.355Z,98079.09
2023-05-11T17:02:15.981Z,98085.09
2023-05-11T17:04:42.780Z,98092.38
2023-05-11T17:07:11.460Z,98110.38
2023-05-11T17:09:38.083Z,98110.38
2023-05-11T17:12:08.389Z,98114.72
2023-05-11T17:14:35.082Z,98125.28
2023-05-11T17:17:04.126Z,98120.28
2023-05-11T17:19:31.213Z,98122.69
2023-05-11T17:21:58.672Z,98124.41
2023-05-11T17:24:25.540Z,98122.38
2023-05-11T17:26:52.212Z,98118.44
2023-05-11T17:29:18.896Z,98124.19
2023-05-11T17:31:48.636Z,98125.75
2023-05-11T17:34:15.952Z,98127.56
2023-05-11T17:36:43.179Z,98125.22
2023-05-11T17:39:11.012Z,98123.91
2023-05-11T17:41:37.835Z,98121.03
2023-05-11T17:44:05.087Z,98124.22
2023-05-11T17:46:31.865Z,98125.19
2023-05-11T17:48:58.559Z,98127.56
2023-05-11T17:51:25.250Z,98133.16
2023-05-11T17:53:51.992Z,98128.06
2023-05-11T17:56:19.156Z,98142.47
2023-05-11T17:58:45.877Z,98136.88
2023-05-11T18:01:16.703Z,98137.84
2023-05-11T18:03:43.875Z,98143.19
2023-05-11T18:06:10.815Z,98145.03
2023-05-11T18:08:37.527Z,98140.06
2023-05-11T18:11:04.607Z,98145.13
2023-05-11T18:13:31.567Z,98136.13
2023-05-11T18:16:01.060Z,98132.59
2023-05-11T18:18:28.048Z,98137.16
2023-05-11T18:20:54.903Z,98136.44
2023-05-11T18:23:21.614Z,98134.94
2023-05-11T18:25:48.519Z,98138.94
2023-05-11T18:28:15.212Z,98130.84
2023-05-11T18:30:41.840Z,98139.91
2023-05-11T18:33:08.587Z,98130.25
2023-05-11T18:35:35.998Z,98140.13
2023-05-11T18:38:04.621Z,98139.25
2023-05-11T18:40:31.388Z,98141.56
2023-05-11T18:42:58.012Z,98143.50
2023-05-11T18:45:25.038Z,98149.47
2023-05-11T18:47:51.730Z,98147.41
2023-05-11T18:50:18.747Z,98146.22
2023-05-11T18:52:45.707Z,98142.78
2023-05-11T18:55:12.775Z,98150.34
2023-05-11T18:57:40.438Z,98159.41
2023-05-11T19:00:07.921Z,98159.81
2023-05-11T19:02:34.859Z,98162.84
2023-05-11T19:05:01.635Z,98166.16
2023-05-11T19:07:28.556Z,98165.09
2023-05-11T19:09:55.391Z,98169.91
2023-05-11T19:12:22.468Z,98175.19
2023-05-11T19:14:49.116Z,98181.22
2023-05-11T19:17:15.802Z,98181.34
2023-05-11T19:19:42.454Z,98185.22
2023-05-11T19:22:09.428Z,98183.56
2023-05-11T19:24:36.208Z,98188.97
2023-05-11T19:27:07.113Z,98196.09
2023-05-11T19:29:35.375Z,98191.13
2023-05-11T19:32:02.878Z,98191.16
2023-05-11T19:34:29.646Z,98194.84
2023-05-11T19:36:56.357Z,98189.38
2023-05-11T19:39:23.148Z,98200.34
2023-05-11T19:41:49.868Z,98201.31
2023-05-11T19:44:16.541Z,98191.38
2023-05-11T19:46:47.059Z,98202.03
2023-05-11T19:49:15.181Z,98210.38
2023-05-11T19:51:42.403Z,98205.41
2023-05-11T19:54:09.503Z,98208.91
2023-05-11T19:56:36.205Z,98206.00
2023-05-11T19:59:03.781Z,98209.41
2023-05-11T20:01:30.642Z,98218.75
2023-05-11T20:03:57.494Z,98214.16
2023-05-11T20:06:25.450Z,98212.94
2023-05-11T20:08:52.726Z,98221.03
2023-05-11T20:11:19.658Z,98223.25
2023-05-11T20:13:47.815Z,98227.94
2023-05-11T20:16:14.963Z,98229.19
2023-05-11T20:18:41.844Z,98232.31
2023-05-11T20:21:08.635Z,98219.13
2023-05-11T20:23:37.220Z,98222.25
2023-05-11T20:26:04.600Z,98225.53
2023-05-11T20:28:31.854Z,98230.03
2023-05-11T20:30:59.048Z,98230.31
2023-05-11T20:35:55.512Z,98224.31
2023-05-11T20:38:22.408Z,98229.78
2023-05-11T20:40:49.065Z,98219.13
2023-05-11T20:43:16.583Z,98217.69
2023-05-11T20:45:43.673Z,98226.81
2023-05-11T20:48:10.923Z,98226.72
2023-05-11T20:50:39.294Z,98225.06
2023-05-11T20:53:06.118Z,98229.09
2023-05-11T20:55:33.008Z,98223.78
2023-05-11T20:57:59.832Z,98221.00
2023-05-11T21:00:26.415Z,98224.00
2023-05-11T21:02:53.203Z,98220.66
2023-05-11T21:05:20.080Z,98217.41
2023-05-11T21:07:46.877Z,98219.34
2023-05-11T21:10:14.012Z,98213.19
2023-05-11T21:12:40.669Z,98216.59
2023-05-11T21:15:07.889Z,98219.47
2023-05-11T21:17:35.667Z,98217.63
2023-05-11T21:20:05.136Z,98221.09
2023-05-11T21:22:33.362Z,98218.25
2023-05-11T21:25:00.237Z,98224.66
2023-05-11T21:27:26.974Z,98221.16
2023-05-11T21:29:53.632Z,98225.69
2023-05-11T21:32:20.228Z,98221.28
2023-05-11T21:34:46.875Z,98221.28
2023-05-11T21:37:14.687Z,98216.59
2023-05-11T21:39:41.581Z,98220.22
2023-05-11T21:42:08.187Z,98215.31
2023-05-11T21:44:34.837Z,98227.56
2023-05-11T21:47:01.498Z,98219.44
2023-05-11T21:49:28.319Z,98228.28
2023-05-11T21:51:55.046Z,98215.84
2023-05-11T21:54:22.389Z,98221.59
2023-05-11T21:56:50.169Z,98217.06
2023-05-11T21:59:17.773Z,98222.69
2023-05-11T22:01:45.360Z,98217.69
2023-05-11T22:04:12.068Z,98224.63
2023-05-11T22:06:38.862Z,98227.03
2023-05-11T22:09:05.480Z,98215.72
2023-05-11T22:11:33.906Z,98219.56
2023-05-11T22:14:00.709Z,98218.59
2023-05-11T22:16:27.662Z,98213.09
2023-05-11T22:18:54.327Z,98218.75
2023-05-11T22:21:21.102Z,98210.03
2023-05-11T22:23:47.853Z,98223.91
2023-05-11T22:26:14.588Z,98221.38
2023-05-11T22:28:41.301Z,98219.50
2023-05-11T22:31:08.155Z,98222.00
2023-05-11T22:33:34.891Z,98223.00
2023-05-11T22:36:01.500Z,98212.88
2023-05-11T22:38:28.427Z,98223.66
2023-05-11T22:40:55.065Z,98224.25
2023-05-11T22:43:21.929Z,98227.03
2023-05-11T22:45:49.345Z,98221.06
2023-05-11T22:48:16.643Z,98226.41
2023-05-11T22:50:47.328Z,98228.06
2023-05-11T22:53:14.757Z,98226.13
2023-05-11T22:55:42.071Z,98220.94
2023-05-11T22:58:08.684Z,98221.53
2023-05-11T23:00:35.804Z,98224.34
2023-05-11T23:03:03.807Z,98217.22
2023-05-11T23:05:30.702Z,98216.63
2023-05-11T23:07:59.712Z,98218.31
2023-05-11T23:10:28.492Z,98218.47
2023-05-11T23:12:55.879Z,98222.00
2023-05-11T23:15:22.555Z,98227.25
2023-05-11T23:17:49.262Z,98223.78
2023-05-11T23:20:16.840Z,98216.66
2023-05-11T23:22:43.683Z,98213.13
2023-05-11T23:25:10.760Z,98214.31
2023-05-11T23:27:37.487Z,98216.81
2023-05-11T23:30:04.945Z,98215.88
2023-05-11T23:32:31.859Z,98215.97
2023-05-11T23:34:58.711Z,98217.13
2023-05-11T23:37:25.541Z,98210.88
2023-05-11T23:39:52.699Z,98207.16
2023-05-11T23:42:19.445Z,98210.88
2023-05-11T23:44:46.272Z,98210.78
2023-05-11T23:47:12.988Z,98204.59
2023-05-11T23:49:39.617Z,98207.47
2023-05-11T23:52:06.563Z,98207.34
2023-05-11T23:54:33.899Z,98205.91
2023-05-11T23:57:02.047Z,98209.28
2023-05-11T23:59:28.734Z,98204.88
